sensor_id;sensor_type;location;lat;lon;timestamp;pressure;altitude;pressure_sealevel;temperature;humidity
67430;BME280;54298;52.076;5.264;2024-02-14T00:00:13;101131.0;;;9.05;99.63
67430;BME280;54298;52.076;5.264;2024-02-14T00:01:49;101137.0;;;8.91;100.0
67430;BME280;54298;52.076;5.264;2024-02-14T00:03:25;101133.0;;;8.98;100.0
67430;BME280;54298;52.076;5.264;2024-02-14T00:05:00;101133.0;;;9.07;100.0
67430;BME280;54298;52.076;5.264;2024-02-14T00:08:13;101133.0;;;9.14;100.0
67430;BME280;54298;52.076;5.264;2024-02-14T00:09:50;101123.0;;;9.15;100.0
67430;BME280;54298;52.076;5.264;2024-02-14T00:11:26;101121.0;;;9.18;100.0
67430;BME280;54298;52.076;5.264;2024-02-14T00:14:38;101126.0;;;9.22;100.0
67430;BME280;54298;52.076;5.264;2024-02-14T00:16:14;101124.0;;;9.25;99.92
67430;BME280;54298;52.076;5.264;2024-02-14T00:17:50;101123.0;;;9.21;100.0
67430;BME280;54298;52.076;5.264;2024-02-14T00:21:03;101126.0;;;9.21;100.0
67430;BME280;54298;52.076;5.264;2024-02-14T00:22:39;101123.0;;;9.24;100.0
67430;BME280;54298;52.076;5.264;2024-02-14T00:24:14;101118.0;;;9.39;99.6
67430;BME280;54298;52.076;5.264;2024-02-14T00:25:51;101118.0;;;9.42;99.72
67430;BME280;54298;52.076;5.264;2024-02-14T00:29:03;101117.0;;;9.31;100.0
67430;BME280;54298;52.076;5.264;2024-02-14T00:30:39;101109.0;;;9.31;100.0
67430;BME280;54298;52.076;5.264;2024-02-14T00:32:18;101115.0;;;9.39;100.0
67430;BME280;54298;52.076;5.264;2024-02-14T00:35:31;101109.0;;;9.23;100.0
67430;BME280;54298;52.076;5.264;2024-02-14T00:37:07;101112.0;;;9.31;100.0
67430;BME280;54298;52.076;5.264;2024-02-14T00:38:43;101105.0;;;9.38;100.0
67430;BME280;54298;52.076;5.264;2024-02-14T00:41:56;101105.0;;;9.34;100.0
67430;BME280;54298;52.076;5.264;2024-02-14T00:43:32;101099.0;;;9.39;100.0
67430;BME280;54298;52.076;5.264;2024-02-14T00:45:09;101101.0;;;9.48;100.0
67430;BME280;54298;52.076;5.264;2024-02-14T00:46:45;101101.0;;;9.48;100.0
67430;BME280;54298;52.076;5.264;2024-02-14T00:49:57;101107.0;;;9.5;100.0
67430;BME280;54298;52.076;5.264;2024-02-14T00:51:33;101097.0;;;9.51;100.0
67430;BME280;54298;52.076;5.264;2024-02-14T00:53:09;101099.0;;;9.57;100.0
67430;BME280;54298;52.076;5.264;2024-02-14T00:56:21;101109.0;;;9.74;100.0
67430;BME280;54298;52.076;5.264;2024-02-14T00:57:58;101110.0;;;9.55;100.0
67430;BME280;54298;52.076;5.264;2024-02-14T00:59:34;101106.0;;;9.61;100.0
67430;BME280;54298;52.076;5.264;2024-02-14T01:02:46;101105.0;;;9.6;100.0
67430;BME280;54298;52.076;5.264;2024-02-14T01:04:22;101105.0;;;9.65;100.0
67430;BME280;54298;52.076;5.264;2024-02-14T01:06:01;101106.0;;;9.63;100.0
67430;BME280;54298;52.076;5.264;2024-02-14T01:09:13;101112.0;;;9.53;100.0
67430;BME280;54298;52.076;5.264;2024-02-14T01:10:49;101105.0;;;9.46;100.0
67430;BME280;54298;52.076;5.264;2024-02-14T01:12:26;101107.0;;;9.55;100.0
67430;BME280;54298;52.076;5.264;2024-02-14T01:14:02;101103.0;;;9.5;100.0
67430;BME280;54298;52.076;5.264;2024-02-14T01:17:14;101101.0;;;9.6;100.0
67430;BME280;54298;52.076;5.264;2024-02-14T01:18:50;101096.0;;;9.65;100.0
67430;BME280;54298;52.076;5.264;2024-02-14T01:20:26;101092.0;;;9.71;100.0
67430;BME280;54298;52.076;5.264;2024-02-14T01:23:38;101095.0;;;9.86;100.0
67430;BME280;54298;52.076;5.264;2024-02-14T01:25:14;101101.0;;;9.76;100.0
67430;BME280;54298;52.076;5.264;2024-02-14T01:26:50;101088.0;;;9.76;100.0
67430;BME280;54298;52.076;5.264;2024-02-14T01:30:03;101097.0;;;9.67;100.0
67430;BME280;54298;52.076;5.264;2024-02-14T01:31:40;101089.0;;;9.77;100.0
67430;BME280;54298;52.076;5.264;2024-02-14T01:33:16;101096.0;;;9.75;100.0
67430;BME280;54298;52.076;5.264;2024-02-14T01:34:52;101098.0;;;9.77;100.0
67430;BME280;54298;52.076;5.264;2024-02-14T01:38:05;101093.0;;;9.67;100.0
67430;BME280;54298;52.076;5.264;2024-02-14T01:39:40;101094.0;;;9.74;100.0
67430;BME280;54298;52.076;5.264;2024-02-14T01:41:17;101090.0;;;9.76;100.0
67430;BME280;54298;52.076;5.264;2024-02-14T01:44:29;101091.0;;;9.74;100.0
67430;BME280;54298;52.076;5.264;2024-02-14T01:46:05;101094.0;;;9.64;100.0
67430;BME280;54298;52.076;5.264;2024-02-14T01:47:42;101095.0;;;9.64;100.0
67430;BME280;54298;52.076;5.264;2024-02-14T01:50:54;101098.0;;;9.76;100.0
67430;BME280;54298;52.076;5.264;2024-02-14T01:52:30;101095.0;;;9.64;100.0
67430;BME280;54298;52.076;5.264;2024-02-14T01:54:06;101099.0;;;9.74;100.0
67430;BME280;54298;52.076;5.264;2024-02-14T01:57:19;101097.0;;;9.88;100.0
67430;BME280;54298;52.076;5.264;2024-02-14T01:58:55;101092.0;;;9.83;100.0
67430;BME280;54298;52.076;5.264;2024-02-14T02:00:32;101098.0;;;9.8;100.0
67430;BME280;54298;52.076;5.264;2024-02-14T02:02:09;101093.0;;;9.84;100.0
67430;BME280;54298;52.076;5.264;2024-02-14T02:05:24;101092.0;;;9.91;100.0
67430;BME280;54298;52.076;5.264;2024-02-14T02:07:00;101096.0;;;9.88;100.0
67430;BME280;54298;52.076;5.264;2024-02-14T02:08:36;101097.0;;;9.99;100.0
67430;BME280;54298;52.076;5.264;2024-02-14T02:11:49;101094.0;;;10.09;100.0
67430;BME280;54298;52.076;5.264;2024-02-14T02:13:26;101098.0;;;10.06;100.0
67430;BME280;54298;52.076;5.264;2024-02-14T02:15:02;101101.0;;;9.98;100.0
67430;BME280;54298;52.076;5.264;2024-02-14T02:18:14;101105.0;;;10.06;100.0
67430;BME280;54298;52.076;5.264;2024-02-14T02:19:53;101105.0;;;10.08;100.0
67430;BME280;54298;52.076;5.264;2024-02-14T02:21:29;101106.0;;;10.14;100.0
67430;BME280;54298;52.076;5.264;2024-02-14T02:23:05;101102.0;;;10.06;100.0
67430;BME280;54298;52.076;5.264;2024-02-14T02:26:17;101101.0;;;10.06;100.0
67430;BME280;54298;52.076;5.264;2024-02-14T02:27:54;101103.0;;;10.1;100.0
67430;BME280;54298;52.076;5.264;2024-02-14T02:29:30;101105.0;;;10.06;100.0
67430;BME280;54298;52.076;5.264;2024-02-14T02:32:45;101110.0;;;10.06;100.0
67430;BME280;54298;52.076;5.264;2024-02-14T02:34:21;101108.0;;;10.02;100.0
67430;BME280;54298;52.076;5.264;2024-02-14T02:35:57;101110.0;;;10.06;100.0
67430;BME280;54298;52.076;5.264;2024-02-14T02:39:11;101113.0;;;10.09;100.0
67430;BME280;54298;52.076;5.264;2024-02-14T02:40:47;101120.0;;;10.15;100.0
67430;BME280;54298;52.076;5.264;2024-02-14T02:42:23;101114.0;;;10.14;100.0
67430;BME280;54298;52.076;5.264;2024-02-14T02:44:00;101117.0;;;10.21;100.0
67430;BME280;54298;52.076;5.264;2024-02-14T02:47:12;101115.0;;;10.14;100.0
67430;BME280;54298;52.076;5.264;2024-02-14T02:48:48;101120.0;;;10.17;100.0
67430;BME280;54298;52.076;5.264;2024-02-14T02:50:24;101117.0;;;10.1;100.0
67430;BME280;54298;52.076;5.264;2024-02-14T02:53:36;101113.0;;;10.14;100.0
67430;BME280;54298;52.076;5.264;2024-02-14T02:55:12;101115.0;;;10.1;100.0
67430;BME280;54298;52.076;5.264;2024-02-14T02:56:48;101126.0;;;10.21;100.0
67430;BME280;54298;52.076;5.264;2024-02-14T03:00:01;101119.0;;;10.28;100.0
67430;BME280;54298;52.076;5.264;2024-02-14T03:01:37;101122.0;;;10.32;100.0
67430;BME280;54298;52.076;5.264;2024-02-14T03:03:13;101120.0;;;10.16;100.0
67430;BME280;54298;52.076;5.264;2024-02-14T03:04:49;101120.0;;;10.27;100.0
67430;BME280;54298;52.076;5.264;2024-02-14T03:08:01;101120.0;;;10.38;100.0
67430;BME280;54298;52.076;5.264;2024-02-14T03:09:37;101126.0;;;10.39;100.0
67430;BME280;54298;52.076;5.264;2024-02-14T03:11:15;101125.0;;;10.37;100.0
67430;BME280;54298;52.076;5.264;2024-02-14T03:14:28;101124.0;;;10.38;100.0
67430;BME280;54298;52.076;5.264;2024-02-14T03:16:05;101126.0;;;10.44;100.0
67430;BME280;54298;52.076;5.264;2024-02-14T03:17:41;101130.0;;;10.34;100.0
67430;BME280;54298;52.076;5.264;2024-02-14T03:20:53;101123.0;;;10.31;100.0
67430;BME280;54298;52.076;5.264;2024-02-14T03:22:29;101126.0;;;10.38;100.0
67430;BME280;54298;52.076;5.264;2024-02-14T03:24:05;101126.0;;;10.43;100.0
67430;BME280;54298;52.076;5.264;2024-02-14T03:27:18;101130.0;;;10.39;100.0
67430;BME280;54298;52.076;5.264;2024-02-14T03:28:54;101130.0;;;10.37;100.0
67430;BME280;54298;52.076;5.264;2024-02-14T03:30:30;101130.0;;;10.44;100.0
67430;BME280;54298;52.076;5.264;2024-02-14T03:32:07;101136.0;;;10.46;100.0
67430;BME280;54298;52.076;5.264;2024-02-14T03:35:19;101141.0;;;10.52;100.0
67430;BME280;54298;52.076;5.264;2024-02-14T03:36:55;101134.0;;;10.48;100.0
67430;BME280;54298;52.076;5.264;2024-02-14T03:38:31;101132.0;;;10.43;100.0
67430;BME280;54298;52.076;5.264;2024-02-14T03:41:44;101133.0;;;10.45;100.0
67430;BME280;54298;52.076;5.264;2024-02-14T03:43:20;101133.0;;;10.45;100.0
67430;BME280;54298;52.076;5.264;2024-02-14T03:44:56;101137.0;;;10.5;100.0
67430;BME280;54298;52.076;5.264;2024-02-14T03:48:09;101147.0;;;10.51;100.0
67430;BME280;54298;52.076;5.264;2024-02-14T03:49:45;101145.0;;;10.55;100.0
67430;BME280;54298;52.076;5.264;2024-02-14T03:51:23;101143.0;;;10.63;100.0
67430;BME280;54298;52.076;5.264;2024-02-14T03:52:59;101147.0;;;10.6;100.0
67430;BME280;54298;52.076;5.264;2024-02-14T03:56:11;101144.0;;;10.51;100.0
67430;BME280;54298;52.076;5.264;2024-02-14T03:57:47;101147.0;;;10.58;100.0
67430;BME280;54298;52.076;5.264;2024-02-14T03:59:23;101149.0;;;10.55;100.0
67430;BME280;54298;52.076;5.264;2024-02-14T04:02:36;101153.0;;;10.56;100.0
67430;BME280;54298;52.076;5.264;2024-02-14T04:04:12;101141.0;;;10.55;100.0
67430;BME280;54298;52.076;5.264;2024-02-14T04:05:48;101156.0;;;10.65;100.0
67430;BME280;54298;52.076;5.264;2024-02-14T04:09:00;101160.0;;;10.63;100.0
67430;BME280;54298;52.076;5.264;2024-02-14T04:10:37;101153.0;;;10.7;100.0
67430;BME280;54298;52.076;5.264;2024-02-14T04:12:12;101152.0;;;10.69;100.0
67430;BME280;54298;52.076;5.264;2024-02-14T04:15:25;101161.0;;;10.66;100.0
67430;BME280;54298;52.076;5.264;2024-02-14T04:17:01;101161.0;;;10.68;100.0
67430;BME280;54298;52.076;5.264;2024-02-14T04:18:37;101164.0;;;10.77;100.0
67430;BME280;54298;52.076;5.264;2024-02-14T04:20:13;101167.0;;;10.69;100.0
67430;BME280;54298;52.076;5.264;2024-02-14T04:23:25;101167.0;;;10.74;100.0
67430;BME280;54298;52.076;5.264;2024-02-14T04:25:01;101173.0;;;10.75;100.0
67430;BME280;54298;52.076;5.264;2024-02-14T04:26:37;101171.0;;;10.8;100.0
67430;BME280;54298;52.076;5.264;2024-02-14T04:29:50;101178.0;;;10.81;100.0
67430;BME280;54298;52.076;5.264;2024-02-14T04:31:26;101169.0;;;10.84;100.0
67430;BME280;54298;52.076;5.264;2024-02-14T04:33:02;101174.0;;;10.85;100.0
67430;BME280;54298;52.076;5.264;2024-02-14T04:36:14;101180.0;;;10.86;100.0
67430;BME280;54298;52.076;5.264;2024-02-14T04:37:50;101180.0;;;10.82;100.0
67430;BME280;54298;52.076;5.264;2024-02-14T04:39:26;101180.0;;;10.93;100.0
67430;BME280;54298;52.076;5.264;2024-02-14T04:41:02;101180.0;;;10.87;100.0
67430;BME280;54298;52.076;5.264;2024-02-14T04:44:14;101184.0;;;10.97;100.0
67430;BME280;54298;52.076;5.264;2024-02-14T04:45:50;101182.0;;;10.94;100.0
67430;BME280;54298;52.076;5.264;2024-02-14T04:47:27;101183.0;;;11.05;100.0
67430;BME280;54298;52.076;5.264;2024-02-14T04:50:39;101183.0;;;11.05;100.0
67430;BME280;54298;52.076;5.264;2024-02-14T04:52:15;101184.0;;;11.07;100.0
67430;BME280;54298;52.076;5.264;2024-02-14T04:53:51;101186.0;;;11.14;100.0
67430;BME280;54298;52.076;5.264;2024-02-14T04:57:03;101191.0;;;11.06;100.0
67430;BME280;54298;52.076;5.264;2024-02-14T04:58:39;101187.0;;;11.0;100.0
67430;BME280;54298;52.076;5.264;2024-02-14T05:00:16;101193.0;;;11.0;100.0
67430;BME280;54298;52.076;5.264;2024-02-14T05:03:29;101191.0;;;11.06;100.0
67430;BME280;54298;52.076;5.264;2024-02-14T05:05:05;101190.0;;;11.1;100.0
67430;BME280;54298;52.076;5.264;2024-02-14T05:06:41;101199.0;;;11.03;100.0
67430;BME280;54298;52.076;5.264;2024-02-14T05:08:17;101200.0;;;11.04;100.0
67430;BME280;54298;52.076;5.264;2024-02-14T05:11:29;101207.0;;;11.0;100.0
67430;BME280;54298;52.076;5.264;2024-02-14T05:13:05;101205.0;;;10.98;100.0
67430;BME280;54298;52.076;5.264;2024-02-14T05:14:41;101205.0;;;11.01;100.0
67430;BME280;54298;52.076;5.264;2024-02-14T05:17:54;101213.0;;;10.92;100.0
67430;BME280;54298;52.076;5.264;2024-02-14T05:19:30;101214.0;;;11.02;100.0
67430;BME280;54298;52.076;5.264;2024-02-14T05:21:06;101210.0;;;11.05;100.0
67430;BME280;54298;52.076;5.264;2024-02-14T05:24:19;101209.0;;;11.06;100.0
67430;BME280;54298;52.076;5.264;2024-02-14T05:25:55;101211.0;;;11.09;100.0
67430;BME280;54298;52.076;5.264;2024-02-14T05:27:31;101214.0;;;11.07;100.0
67430;BME280;54298;52.076;5.264;2024-02-14T05:29:07;101215.0;;;11.14;100.0
67430;BME280;54298;52.076;5.264;2024-02-14T05:32:19;101217.0;;;11.18;100.0
67430;BME280;54298;52.076;5.264;2024-02-14T05:33:56;101220.0;;;11.04;100.0
67430;BME280;54298;52.076;5.264;2024-02-14T05:35:32;101216.0;;;11.04;100.0
67430;BME280;54298;52.076;5.264;2024-02-14T05:38:44;101219.0;;;11.05;100.0
67430;BME280;54298;52.076;5.264;2024-02-14T05:40:20;101218.0;;;11.09;100.0
67430;BME280;54298;52.076;5.264;2024-02-14T05:41:56;101215.0;;;11.12;100.0
67430;BME280;54298;52.076;5.264;2024-02-14T05:45:09;101220.0;;;11.16;100.0
67430;BME280;54298;52.076;5.264;2024-02-14T05:46:45;101220.0;;;11.18;100.0
67430;BME280;54298;52.076;5.264;2024-02-14T05:48:22;101220.0;;;11.24;100.0
67430;BME280;54298;52.076;5.264;2024-02-14T05:51:34;101221.0;;;11.29;100.0
67430;BME280;54298;52.076;5.264;2024-02-14T05:53:10;101222.0;;;11.19;100.0
67430;BME280;54298;52.076;5.264;2024-02-14T05:54:46;101225.0;;;11.25;100.0
67430;BME280;54298;52.076;5.264;2024-02-14T05:56:22;101225.0;;;11.22;100.0
67430;BME280;54298;52.076;5.264;2024-02-14T05:59:34;101227.0;;;11.26;100.0
67430;BME280;54298;52.076;5.264;2024-02-14T06:01:10;101235.0;;;11.1;100.0
67430;BME280;54298;52.076;5.264;2024-02-14T06:02:47;101233.0;;;11.14;100.0
67430;BME280;54298;52.076;5.264;2024-02-14T06:05:59;101234.0;;;11.12;100.0
67430;BME280;54298;52.076;5.264;2024-02-14T06:07:35;101237.0;;;11.16;100.0
67430;BME280;54298;52.076;5.264;2024-02-14T06:09:11;101235.0;;;11.28;100.0
67430;BME280;54298;52.076;5.264;2024-02-14T06:12:23;101230.0;;;11.29;100.0
67430;BME280;54298;52.076;5.264;2024-02-14T06:13:59;101234.0;;;11.26;100.0
67430;BME280;54298;52.076;5.264;2024-02-14T06:15:35;101238.0;;;11.24;100.0
67430;BME280;54298;52.076;5.264;2024-02-14T06:18:47;101248.0;;;11.24;100.0
67430;BME280;54298;52.076;5.264;2024-02-14T06:20:24;101248.0;;;11.24;100.0
67430;BME280;54298;52.076;5.264;2024-02-14T06:21:59;101243.0;;;11.26;100.0
67430;BME280;54298;52.076;5.264;2024-02-14T06:23:35;101250.0;;;11.38;100.0
67430;BME280;54298;52.076;5.264;2024-02-14T06:26:47;101252.0;;;11.34;100.0
67430;BME280;54298;52.076;5.264;2024-02-14T06:28:23;101255.0;;;11.34;100.0
67430;BME280;54298;52.076;5.264;2024-02-14T06:29:59;101253.0;;;11.42;100.0
67430;BME280;54298;52.076;5.264;2024-02-14T06:33:11;101256.0;;;11.37;100.0
67430;BME280;54298;52.076;5.264;2024-02-14T06:34:48;101263.0;;;11.35;100.0
67430;BME280;54298;52.076;5.264;2024-02-14T06:36:24;101262.0;;;11.33;100.0
67430;BME280;54298;52.076;5.264;2024-02-14T06:39:36;101264.0;;;11.41;100.0
67430;BME280;54298;52.076;5.264;2024-02-14T06:41:12;101268.0;;;11.38;100.0
67430;BME280;54298;52.076;5.264;2024-02-14T06:42:48;101278.0;;;11.34;100.0
67430;BME280;54298;52.076;5.264;2024-02-14T06:46:00;101272.0;;;11.3;100.0
67430;BME280;54298;52.076;5.264;2024-02-14T06:47:36;101273.0;;;11.28;100.0
67430;BME280;54298;52.076;5.264;2024-02-14T06:49:12;101275.0;;;11.38;100.0
67430;BME280;54298;52.076;5.264;2024-02-14T06:50:49;101278.0;;;11.38;100.0
67430;BME280;54298;52.076;5.264;2024-02-14T06:54:02;101276.0;;;11.27;100.0
67430;BME280;54298;52.076;5.264;2024-02-14T06:55:38;101273.0;;;11.4;100.0
67430;BME280;54298;52.076;5.264;2024-02-14T06:57:14;101281.0;;;11.36;100.0
67430;BME280;54298;52.076;5.264;2024-02-14T07:00:26;101277.0;;;11.4;100.0
67430;BME280;54298;52.076;5.264;2024-02-14T07:02:04;101281.0;;;11.27;100.0
67430;BME280;54298;52.076;5.264;2024-02-14T07:03:40;101282.0;;;11.37;100.0
67430;BME280;54298;52.076;5.264;2024-02-14T07:06:53;101287.0;;;11.44;100.0
67430;BME280;54298;52.076;5.264;2024-02-14T07:08:29;101287.0;;;11.4;100.0
67430;BME280;54298;52.076;5.264;2024-02-14T07:10:06;101291.0;;;11.48;100.0
67430;BME280;54298;52.076;5.264;2024-02-14T07:11:42;101291.0;;;11.43;100.0
67430;BME280;54298;52.076;5.264;2024-02-14T07:14:54;101290.0;;;11.46;100.0
67430;BME280;54298;52.076;5.264;2024-02-14T07:16:30;101298.0;;;11.49;100.0
67430;BME280;54298;52.076;5.264;2024-02-14T07:18:06;101292.0;;;11.57;100.0
67430;BME280;54298;52.076;5.264;2024-02-14T07:21:18;101291.0;;;11.61;100.0
67430;BME280;54298;52.076;5.264;2024-02-14T07:22:55;101298.0;;;11.5;100.0
67430;BME280;54298;52.076;5.264;2024-02-14T07:24:31;101295.0;;;11.52;100.0
67430;BME280;54298;52.076;5.264;2024-02-14T07:27:43;101286.0;;;11.5;100.0
67430;BME280;54298;52.076;5.264;2024-02-14T07:29:19;101290.0;;;11.65;100.0
67430;BME280;54298;52.076;5.264;2024-02-14T07:30:55;101290.0;;;11.54;100.0
67430;BME280;54298;52.076;5.264;2024-02-14T07:34:07;101296.0;;;11.45;100.0
67430;BME280;54298;52.076;5.264;2024-02-14T07:35:43;101288.0;;;11.61;100.0
67430;BME280;54298;52.076;5.264;2024-02-14T07:37:19;101290.0;;;11.6;100.0
67430;BME280;54298;52.076;5.264;2024-02-14T07:38:56;101291.0;;;11.69;100.0
67430;BME280;54298;52.076;5.264;2024-02-14T07:42:11;101295.0;;;11.7;100.0
67430;BME280;54298;52.076;5.264;2024-02-14T07:43:47;101294.0;;;11.72;100.0
67430;BME280;54298;52.076;5.264;2024-02-14T07:45:23;101303.0;;;11.75;100.0
67430;BME280;54298;52.076;5.264;2024-02-14T07:48:35;101305.0;;;11.72;100.0
67430;BME280;54298;52.076;5.264;2024-02-14T07:50:11;101300.0;;;11.83;100.0
67430;BME280;54298;52.076;5.264;2024-02-14T07:51:47;101305.0;;;11.77;100.0
67430;BME280;54298;52.076;5.264;2024-02-14T07:54:59;101308.0;;;11.65;100.0
67430;BME280;54298;52.076;5.264;2024-02-14T07:56:36;101311.0;;;11.72;100.0
67430;BME280;54298;52.076;5.264;2024-02-14T07:58:12;101301.0;;;11.72;100.0
67430;BME280;54298;52.076;5.264;2024-02-14T07:59:48;101307.0;;;11.69;100.0
67430;BME280;54298;52.076;5.264;2024-02-14T08:03:01;101313.0;;;11.73;100.0
67430;BME280;54298;52.076;5.264;2024-02-14T08:04:37;101313.0;;;11.58;100.0
67430;BME280;54298;52.076;5.264;2024-02-14T08:06:13;101313.0;;;11.69;100.0
67430;BME280;54298;52.076;5.264;2024-02-14T08:09:25;101318.0;;;11.73;100.0
67430;BME280;54298;52.076;5.264;2024-02-14T08:11:01;101321.0;;;11.7;100.0
67430;BME280;54298;52.076;5.264;2024-02-14T08:12:38;101323.0;;;11.67;100.0
67430;BME280;54298;52.076;5.264;2024-02-14T08:15:53;101324.0;;;11.85;100.0
67430;BME280;54298;52.076;5.264;2024-02-14T08:17:29;101321.0;;;11.83;100.0
67430;BME280;54298;52.076;5.264;2024-02-14T08:19:05;101323.0;;;11.75;100.0
67430;BME280;54298;52.076;5.264;2024-02-14T08:20:41;101324.0;;;11.75;100.0
67430;BME280;54298;52.076;5.264;2024-02-14T08:23:54;101326.0;;;11.87;100.0
67430;BME280;54298;52.076;5.264;2024-02-14T08:25:30;101323.0;;;11.79;100.0
67430;BME280;54298;52.076;5.264;2024-02-14T08:27:06;101325.0;;;11.84;100.0
67430;BME280;54298;52.076;5.264;2024-02-14T08:30:19;101324.0;;;11.72;100.0
67430;BME280;54298;52.076;5.264;2024-02-14T08:31:55;101326.0;;;11.67;100.0
67430;BME280;54298;52.076;5.264;2024-02-14T08:33:30;101328.0;;;11.79;100.0
67430;BME280;54298;52.076;5.264;2024-02-14T08:36:44;101323.0;;;11.84;100.0
67430;BME280;54298;52.076;5.264;2024-02-14T08:38:20;101326.0;;;11.92;100.0
67430;BME280;54298;52.076;5.264;2024-02-14T08:39:56;101331.0;;;11.83;100.0
67430;BME280;54298;52.076;5.264;2024-02-14T08:43:08;101333.0;;;11.82;100.0
67430;BME280;54298;52.076;5.264;2024-02-14T08:44:44;101338.0;;;11.8;100.0
67430;BME280;54298;52.076;5.264;2024-02-14T08:46:20;101334.0;;;11.8;100.0
67430;BME280;54298;52.076;5.264;2024-02-14T08:47:57;101331.0;;;11.77;100.0
67430;BME280;54298;52.076;5.264;2024-02-14T08:51:12;101339.0;;;11.69;100.0
67430;BME280;54298;52.076;5.264;2024-02-14T08:52:48;101333.0;;;11.58;100.0
67430;BME280;54298;52.076;5.264;2024-02-14T08:54:24;101335.0;;;11.59;100.0
67430;BME280;54298;52.076;5.264;2024-02-14T08:57:36;101336.0;;;11.68;100.0
67430;BME280;54298;52.076;5.264;2024-02-14T08:59:12;101333.0;;;11.81;100.0
67430;BME280;54298;52.076;5.264;2024-02-14T09:00:49;101335.0;;;11.79;100.0
67430;BME280;54298;52.076;5.264;2024-02-14T09:04:01;101335.0;;;11.78;100.0
67430;BME280;54298;52.076;5.264;2024-02-14T09:05:37;101334.0;;;11.81;100.0
67430;BME280;54298;52.076;5.264;2024-02-14T09:07:13;101338.0;;;11.79;100.0
67430;BME280;54298;52.076;5.264;2024-02-14T09:08:49;101339.0;;;11.88;100.0
67430;BME280;54298;52.076;5.264;2024-02-14T09:12:01;101347.0;;;11.89;100.0
67430;BME280;54298;52.076;5.264;2024-02-14T09:13:37;101342.0;;;11.95;100.0
67430;BME280;54298;52.076;5.264;2024-02-14T09:15:14;101347.0;;;11.94;100.0
67430;BME280;54298;52.076;5.264;2024-02-14T09:18:25;101350.0;;;11.75;100.0
67430;BME280;54298;52.076;5.264;2024-02-14T09:20:02;101350.0;;;11.75;100.0
67430;BME280;54298;52.076;5.264;2024-02-14T09:21:38;101358.0;;;11.81;100.0
67430;BME280;54298;52.076;5.264;2024-02-14T09:24:50;101357.0;;;11.91;100.0
67430;BME280;54298;52.076;5.264;2024-02-14T09:26:26;101359.0;;;11.83;100.0
67430;BME280;54298;52.076;5.264;2024-02-14T09:28:02;101360.0;;;11.86;100.0
67430;BME280;54298;52.076;5.264;2024-02-14T09:31:17;101359.0;;;11.98;100.0
67430;BME280;54298;52.076;5.264;2024-02-14T09:32:54;101359.0;;;11.96;100.0
67430;BME280;54298;52.076;5.264;2024-02-14T09:34:34;101362.0;;;11.91;100.0
67430;BME280;54298;52.076;5.264;2024-02-14T09:36:09;101357.0;;;12.02;100.0
67430;BME280;54298;52.076;5.264;2024-02-14T09:39:22;101360.0;;;12.06;100.0
67430;BME280;54298;52.076;5.264;2024-02-14T09:41:04;101357.0;;;12.12;100.0
67430;BME280;54298;52.076;5.264;2024-02-14T09:42:44;101355.0;;;12.19;100.0
67430;BME280;54298;52.076;5.264;2024-02-14T09:44:24;101356.0;;;12.07;100.0
67430;BME280;54298;52.076;5.264;2024-02-14T09:47:41;101355.0;;;12.1;100.0
67430;BME280;54298;52.076;5.264;2024-02-14T09:49:17;101360.0;;;12.01;100.0
67430;BME280;54298;52.076;5.264;2024-02-14T09:50:56;101367.0;;;11.96;100.0
67430;BME280;54298;52.076;5.264;2024-02-14T09:54:10;101360.0;;;12.07;100.0
67430;BME280;54298;52.076;5.264;2024-02-14T09:55:47;101367.0;;;12.11;100.0
67430;BME280;54298;52.076;5.264;2024-02-14T09:57:24;101361.0;;;12.23;100.0
67430;BME280;54298;52.076;5.264;2024-02-14T09:59:02;101370.0;;;12.26;100.0
67430;BME280;54298;52.076;5.264;2024-02-14T10:02:14;101365.0;;;12.17;100.0
67430;BME280;54298;52.076;5.264;2024-02-14T10:03:51;101373.0;;;12.14;100.0
67430;BME280;54298;52.076;5.264;2024-02-14T10:05:28;101380.0;;;12.07;100.0
67430;BME280;54298;52.076;5.264;2024-02-14T10:08:40;101375.0;;;12.13;100.0
67430;BME280;54298;52.076;5.264;2024-02-14T10:10:17;101371.0;;;12.15;100.0
67430;BME280;54298;52.076;5.264;2024-02-14T10:11:53;101368.0;;;12.26;100.0
67430;BME280;54298;52.076;5.264;2024-02-14T10:15:06;101367.0;;;12.22;100.0
67430;BME280;54298;52.076;5.264;2024-02-14T10:16:42;101370.0;;;12.27;100.0
67430;BME280;54298;52.076;5.264;2024-02-14T10:18:18;101371.0;;;12.26;100.0
67430;BME280;54298;52.076;5.264;2024-02-14T10:19:55;101365.0;;;12.22;100.0
67430;BME280;54298;52.076;5.264;2024-02-14T10:23:07;101369.0;;;12.29;100.0
67430;BME280;54298;52.076;5.264;2024-02-14T10:24:43;101369.0;;;12.33;100.0
67430;BME280;54298;52.076;5.264;2024-02-14T10:26:21;101373.0;;;12.3;100.0
67430;BME280;54298;52.076;5.264;2024-02-14T10:29:40;101369.0;;;12.26;100.0
67430;BME280;54298;52.076;5.264;2024-02-14T10:31:20;101374.0;;;12.35;100.0
67430;BME280;54298;52.076;5.264;2024-02-14T10:32:58;101380.0;;;12.41;100.0
67430;BME280;54298;52.076;5.264;2024-02-14T10:34:35;101380.0;;;12.4;100.0
67430;BME280;54298;52.076;5.264;2024-02-14T10:37:50;101377.0;;;12.4;100.0
67430;BME280;54298;52.076;5.264;2024-02-14T10:39:26;101378.0;;;12.5;100.0
67430;BME280;54298;52.076;5.264;2024-02-14T10:41:05;101383.0;;;12.5;100.0
67430;BME280;54298;52.076;5.264;2024-02-14T10:44:18;101381.0;;;12.46;100.0
67430;BME280;54298;52.076;5.264;2024-02-14T10:45:54;101380.0;;;12.52;100.0
67430;BME280;54298;52.076;5.264;2024-02-14T10:47:34;101377.0;;;12.5;100.0
67430;BME280;54298;52.076;5.264;2024-02-14T10:49:11;101380.0;;;12.55;100.0
67430;BME280;54298;52.076;5.264;2024-02-14T10:52:28;101380.0;;;12.45;100.0
67430;BME280;54298;52.076;5.264;2024-02-14T10:54:10;101386.0;;;12.59;100.0
67430;BME280;54298;52.076;5.264;2024-02-14T10:55:48;101383.0;;;12.65;100.0
67430;BME280;54298;52.076;5.264;2024-02-14T10:59:02;101385.0;;;12.65;100.0
67430;BME280;54298;52.076;5.264;2024-02-14T11:00:40;101383.0;;;12.65;100.0
67430;BME280;54298;52.076;5.264;2024-02-14T11:02:17;101386.0;;;12.68;100.0
67430;BME280;54298;52.076;5.264;2024-02-14T11:03:55;101387.0;;;12.59;100.0